Terminal Aerodrome Forecast
Issued by NWS

Home | Current Version | Previous Version | Text Only | Print | Product List | Glossary On
Versions: 1 2 3 4 5 6 7 8 9 10 11 12 13 14 15 16 17 18 19 20 21 22 23 24 25 26 27
000
FTUS43 KDLH 171100
TAFBRD
TAF
KBRD 171124Z 1712/1812 32008KT 6SM -SN BKN015 OVC060
     FM171700 35005KT P6SM BKN020 OVC060
     FM180200 02003KT P6SM OVC016
     FM180700 00000KT 4SM BR OVC012=

USA.gov is the U.S. government's official web portal to all federal, state and local government web resources and services.